Time;durP1;ratioP1;P1;durP2;ratioP2;P2;SDS_P1;SDS_P2;PMS_P1;PMS_P2;Temp;Humidity;BMP_temperature;BMP_pressure;BME280_temperature;BME280_humidity;BME280_pressure;Samples;Min_cycle;Max_cycle;Signal;HPM_P1;HPM_P2
2022/03/06 00:00:49;;;;;;;9.98;5.57;;;2.20;93.10;;;;;;5059148;28;20445;-91
2022/03/06 00:03:15;;;;;;;8.57;6.60;;;2.20;93.10;;;;;;5073274;28;20269;-92
2022/03/06 00:05:41;;;;;;;7.70;5.80;;;2.20;93.20;;;;;;5059234;28;20312;-93
2022/03/06 00:08:08;;;;;;;9.65;6.00;;;2.20;93.20;;;;;;5060363;28;20853;-93
2022/03/06 00:10:35;;;;;;;10.13;6.50;;;2.20;93.20;;;;;;5062477;28;20312;-94
2022/03/06 00:13:01;;;;;;;8.52;6.55;;;2.20;93.10;;;;;;5058933;28;20275;-92
2022/03/06 00:15:28;;;;;;;8.90;6.05;;;2.20;93.20;;;;;;5064726;28;20208;-93
2022/03/06 00:17:55;;;;;;;10.40;5.93;;;2.20;93.20;;;;;;5058725;28;20176;-92
2022/03/06 00:20:21;;;;;;;8.85;6.60;;;2.10;93.20;;;;;;5058832;28;20257;-94
2022/03/06 00:22:48;;;;;;;12.40;7.30;;;2.10;93.20;;;;;;5063335;28;20192;-92
2022/03/06 00:25:17;;;;;;;8.15;5.90;;;2.10;93.40;;;;;;5062835;28;20212;-94
2022/03/06 00:27:43;;;;;;;6.47;4.50;;;2.10;93.40;;;;;;5065499;28;20164;-94
2022/03/06 00:30:09;;;;;;;9.88;6.53;;;2.00;93.50;;;;;;5059604;28;20308;-94
2022/03/06 00:32:36;;;;;;;7.53;5.45;;;2.00;93.50;;;;;;5058878;28;20321;-94
2022/03/06 00:35:03;;;;;;;7.95;5.85;;;2.00;93.50;;;;;;5042997;28;20798;-93
2022/03/06 00:37:29;;;;;;;8.50;6.38;;;2.00;93.70;;;;;;5060483;28;20176;-93
2022/03/06 00:39:55;;;;;;;8.18;5.65;;;2.00;93.70;;;;;;5069741;28;20211;-94
2022/03/06 00:42:22;;;;;;;7.38;5.43;;;2.00;93.70;;;;;;5061948;28;20183;-92
2022/03/06 00:44:48;;;;;;;7.00;5.38;;;2.00;93.80;;;;;;5063130;28;20249;-93
2022/03/06 00:47:14;;;;;;;8.68;6.00;;;2.00;93.80;;;;;;5061404;28;20645;-93
2022/03/06 00:49:40;;;;;;;8.47;5.93;;;2.00;93.70;;;;;;5062101;28;20223;-92
2022/03/06 00:52:07;;;;;;;9.07;5.95;;;1.90;93.90;;;;;;5058810;28;20180;-92
2022/03/06 00:54:33;;;;;;;8.80;5.82;;;1.90;93.80;;;;;;5062353;28;20207;-93
2022/03/06 00:56:59;;;;;;;11.65;6.65;;;1.90;94.00;;;;;;5064993;28;20171;-94
2022/03/06 00:59:33;;;;;;;8.70;6.13;;;1.90;94.10;;;;;;5061960;28;20674;-92
2022/03/06 01:02:00;;;;;;;8.32;5.88;;;1.90;94.10;;;;;;5061738;28;20188;-93
2022/03/06 01:04:26;;;;;;;7.95;5.50;;;1.90;94.10;;;;;;5070354;28;20222;-94
2022/03/06 01:06:53;;;;;;;7.35;5.63;;;1.80;94.30;;;;;;5069727;28;20188;-92
2022/03/06 01:09:19;;;;;;;8.30;6.28;;;1.80;94.20;;;;;;5061603;28;20207;-93
2022/03/06 01:11:45;;;;;;;6.93;5.72;;;1.80;94.20;;;;;;5063487;28;20300;-93
2022/03/06 01:14:12;;;;;;;9.10;5.70;;;1.80;94.30;;;;;;5061728;28;20176;-94
2022/03/06 01:16:38;;;;;;;9.02;6.85;;;1.80;94.40;;;;;;5057558;28;20208;-94
2022/03/06 01:19:04;;;;;;;10.05;6.57;;;1.70;94.50;;;;;;5063095;28;20187;-93
2022/03/06 01:21:30;;;;;;;8.90;6.27;;;1.70;94.60;;;;;;5061671;28;20232;-93
2022/03/06 01:23:57;;;;;;;8.48;5.82;;;1.70;94.70;;;;;;5061737;28;20438;-93
2022/03/06 01:26:23;;;;;;;9.68;5.57;;;1.60;94.70;;;;;;5047264;28;20208;-92
2022/03/06 01:28:50;;;;;;;7.70;5.32;;;1.60;94.90;;;;;;5070416;28;20176;-93
2022/03/06 01:31:17;;;;;;;9.32;5.63;;;1.60;95.10;;;;;;5060871;28;20220;-93
2022/03/06 01:33:43;;;;;;;7.85;5.30;;;1.50;95.10;;;;;;5065240;28;20245;-92
2022/03/06 01:36:10;;;;;;;6.35;4.95;;;1.50;95.50;;;;;;5060621;28;20200;-92
2022/03/06 01:38:39;;;;;;;7.78;5.60;;;1.50;95.30;;;;;;5062391;28;20180;-93
2022/03/06 01:41:07;;;;;;;8.20;5.00;;;1.50;95.30;;;;;;5067564;28;20211;-92
2022/03/06 01:43:33;;;;;;;7.10;5.28;;;1.50;95.50;;;;;;5060488;28;20672;-93
2022/03/06 01:45:59;;;;;;;7.38;5.70;;;1.50;95.70;;;;;;5060877;28;20335;-94
2022/03/06 01:48:26;;;;;;;7.47;5.70;;;1.50;95.80;;;;;;5065298;28;20356;-94
2022/03/06 01:50:53;;;;;;;7.55;5.40;;;1.50;95.90;;;;;;5045384;28;20242;-93
2022/03/06 01:53:20;;;;;;;7.07;5.78;;;1.50;96.10;;;;;;5054350;28;20194;-94
2022/03/06 01:55:47;;;;;;;8.30;6.35;;;1.50;96.20;;;;;;5060510;28;20233;-93
2022/03/06 01:58:13;;;;;;;9.73;5.57;;;1.50;96.20;;;;;;5061270;28;20180;-93
2022/03/06 02:00:49;;;;;;;6.93;5.68;;;1.50;96.30;;;;;;5062931;28;20676;-92
2022/03/06 02:03:19;;;;;;;10.50;5.95;;;1.50;96.40;;;;;;5061465;28;20180;-92
2022/03/06 02:05:45;;;;;;;9.98;6.38;;;1.60;96.50;;;;;;5064034;28;20204;-93
2022/03/06 02:08:11;;;;;;;11.98;7.00;;;1.60;96.60;;;;;;5069940;28;20632;-92
2022/03/06 02:10:37;;;;;;;12.27;7.40;;;1.60;96.60;;;;;;5059628;28;20220;-93
2022/03/06 02:13:04;;;;;;;11.55;7.55;;;1.70;96.70;;;;;;5061736;28;20184;-91
2022/03/06 02:15:32;;;;;;;9.85;6.45;;;1.70;96.70;;;;;;5063448;28;20235;-93
2022/03/06 02:17:58;;;;;;;10.68;6.80;;;1.70;96.70;;;;;;5065269;28;20187;-92
2022/03/06 02:20:25;;;;;;;10.35;7.93;;;1.80;96.80;;;;;;5066741;28;20319;-93
2022/03/06 02:22:53;;;;;;;8.45;6.13;;;1.80;96.70;;;;;;5060581;28;20176;-94
2022/03/06 02:25:22;;;;;;;10.93;6.88;;;1.80;96.70;;;;;;5059772;28;20216;-93
2022/03/06 02:27:50;;;;;;;12.38;7.75;;;1.80;96.70;;;;;;5060953;28;20180;-92
2022/03/06 02:30:21;;;;;;;7.45;6.10;;;1.80;96.70;;;;;;5063958;28;20227;-93
2022/03/06 02:32:49;;;;;;;9.23;6.60;;;1.80;96.80;;;;;;5067520;28;20271;-93
2022/03/06 02:35:16;;;;;;;9.52;6.50;;;1.80;96.90;;;;;;5060392;28;20669;-93
2022/03/06 02:37:43;;;;;;;9.70;6.55;;;1.80;96.80;;;;;;5060408;28;20171;-93
2022/03/06 02:40:14;;;;;;;10.85;7.20;;;1.80;96.80;;;;;;5061273;28;20303;-94
2022/03/06 02:42:43;;;;;;;12.05;7.32;;;1.80;96.80;;;;;;5064933;28;20180;-93
2022/03/06 02:45:24;;;;;;;13.05;6.35;;;1.80;96.80;;;;;;5065620;28;20251;-94
2022/03/06 02:47:52;;;;;;;9.50;6.65;;;1.80;97.20;;;;;;5059999;28;20182;-94
2022/03/06 02:50:23;;;;;;;10.93;7.00;;;1.90;96.80;;;;;;5059684;28;20301;-93
2022/03/06 02:52:49;;;;;;;11.35;7.00;;;1.80;96.90;;;;;;5062888;28;20211;-93
2022/03/06 02:55:17;;;;;;;10.10;6.05;;;1.90;96.90;;;;;;5067317;28;20203;-94
2022/03/06 02:57:44;;;;;;;8.40;6.07;;;1.80;96.90;;;;;;5063778;28;20199;-93
2022/03/06 03:00:14;;;;;;;7.68;6.40;;;1.80;96.90;;;;;;5059809;28;20717;-94
2022/03/06 03:02:40;;;;;;;8.77;7.20;;;1.80;96.90;;;;;;5059312;28;20645;-94
2022/03/06 03:05:10;;;;;;;9.88;6.53;;;1.80;97.00;;;;;;5060224;28;20216;-94
2022/03/06 03:07:48;;;;;;;10.70;6.30;;;1.80;97.00;;;;;;5065798;28;20218;-94
2022/03/06 03:10:17;;;;;;;11.73;6.88;;;1.70;97.10;;;;;;5059274;28;20314;-93
2022/03/06 03:12:43;;;;;;;11.00;7.03;;;1.70;97.20;;;;;;5062039;28;20172;-95
2022/03/06 03:15:10;;;;;;;9.15;6.65;;;1.70;97.20;;;;;;5059885;28;20210;-94
2022/03/06 03:17:37;;;;;;;9.95;6.70;;;1.70;97.30;;;;;;5061534;28;20179;-92
2022/03/06 03:20:04;;;;;;;9.95;6.28;;;1.70;97.30;;;;;;5066828;28;20202;-94
2022/03/06 03:22:31;;;;;;;10.68;6.88;;;1.60;97.30;;;;;;5064569;28;20175;-94
2022/03/06 03:24:57;;;;;;;9.85;6.50;;;1.60;97.30;;;;;;5061836;28;20294;-94
2022/03/06 03:27:24;;;;;;;11.57;6.63;;;1.60;97.40;;;;;;5061183;28;20191;-94
2022/03/06 03:29:50;;;;;;;7.85;6.80;;;1.50;97.40;;;;;;5063886;28;20245;-93
2022/03/06 03:32:16;;;;;;;11.40;7.45;;;1.50;97.50;;;;;;5069710;28;20181;-93
2022/03/06 03:34:44;;;;;;;13.02;8.10;;;1.40;97.60;;;;;;5044656;28;20204;-94
2022/03/06 03:37:11;;;;;;;16.77;7.05;;;1.40;97.70;;;;;;5059351;28;20180;-94
2022/03/06 03:39:38;;;;;;;10.93;7.45;;;1.40;97.80;;;;;;5061876;28;20247;-93
2022/03/06 03:42:05;;;;;;;10.38;6.15;;;1.30;97.80;;;;;;5059303;28;20184;-93
2022/03/06 03:44:31;;;;;;;11.07;7.35;;;1.30;98.00;;;;;;5066154;28;20203;-94
2022/03/06 03:46:58;;;;;;;9.02;6.97;;;1.30;98.00;;;;;;5063329;28;20231;-94
2022/03/06 03:49:27;;;;;;;9.02;6.22;;;1.20;98.20;;;;;;5080734;28;20235;-92
2022/03/06 03:51:53;;;;;;;9.43;7.57;;;1.20;98.30;;;;;;5083013;28;20215;-94
2022/03/06 03:54:19;;;;;;;12.80;7.77;;;1.20;98.30;;;;;;5077518;28;20224;-93
2022/03/06 03:56:45;;;;;;;10.02;7.50;;;1.20;98.40;;;;;;5081886;28;20390;-93
2022/03/06 03:59:12;;;;;;;10.07;6.93;;;1.20;98.60;;;;;;5077125;28;20176;-93
2022/03/06 04:01:38;;;;;;;10.45;6.85;;;1.20;98.60;;;;;;5081017;28;20395;-93
2022/03/06 04:04:05;;;;;;;11.18;6.55;;;1.10;98.60;;;;;;5080825;28;20181;-94
2022/03/06 04:06:31;;;;;;;10.05;6.97;;;1.10;98.70;;;;;;5079122;28;20183;-92
2022/03/06 04:08:57;;;;;;;12.27;6.90;;;1.00;98.80;;;;;;5090062;28;20183;-92
2022/03/06 04:11:23;;;;;;;11.13;7.40;;;1.00;99.00;;;;;;5076841;28;20695;-94
2022/03/06 04:13:49;;;;;;;11.50;6.95;;;1.00;99.10;;;;;;5080075;28;20984;-94
2022/03/06 04:16:15;;;;;;;10.35;7.30;;;0.90;99.20;;;;;;5083598;28;20203;-94
2022/03/06 04:18:42;;;;;;;9.45;7.57;;;0.90;99.60;;;;;;5085534;28;20233;-94
2022/03/06 04:21:08;;;;;;;11.63;7.15;;;0.90;99.60;;;;;;5065089;28;20297;-95
2022/03/06 04:23:35;;;;;;;12.35;7.40;;;0.90;99.60;;;;;;5087843;28;20226;-92
2022/03/06 04:26:03;;;;;;;13.20;7.18;;;0.90;99.60;;;;;;5081275;28;20219;-93
2022/03/06 04:28:30;;;;;;;9.27;6.63;;;0.90;99.70;;;;;;5083183;28;20236;-95
2022/03/06 04:30:56;;;;;;;8.95;6.03;;;0.80;99.80;;;;;;5082400;28;20219;-94
2022/03/06 04:33:23;;;;;;;11.70;6.50;;;0.80;99.90;;;;;;5089439;28;20279;-93
2022/03/06 04:35:48;;;;;;;10.30;6.95;;;0.80;99.90;;;;;;5088764;28;20456;-94
2022/03/06 04:38:15;;;;;;;10.60;7.10;;;0.70;99.90;;;;;;5082668;28;20715;-93
2022/03/06 04:40:47;;;;;;;10.02;7.20;;;0.70;99.90;;;;;;5083408;28;20210;-93
2022/03/06 04:43:14;;;;;;;8.30;6.60;;;0.70;99.90;;;;;;5082583;28;20183;-94
2022/03/06 04:45:40;;;;;;;13.02;7.07;;;0.60;99.90;;;;;;5098987;28;20708;-94
2022/03/06 04:48:06;;;;;;;12.48;7.30;;;0.60;99.90;;;;;;5101195;28;20184;-94
2022/03/06 04:50:32;;;;;;;11.43;7.45;;;0.60;99.90;;;;;;5078937;28;20220;-93
2022/03/06 04:52:59;;;;;;;12.88;7.13;;;0.50;99.90;;;;;;5096642;28;20177;-93
2022/03/06 04:55:25;;;;;;;11.13;7.65;;;0.50;99.90;;;;;;5096276;28;20223;-93
2022/03/06 04:57:50;;;;;;;10.52;7.13;;;0.50;99.90;;;;;;5104666;28;20267;-92
2022/03/06 05:00:17;;;;;;;11.17;7.40;;;0.50;99.90;;;;;;5100910;28;20231;-93
2022/03/06 05:02:44;;;;;;;9.15;6.75;;;0.40;99.90;;;;;;5095984;28;20479;-94
2022/03/06 05:05:10;;;;;;;14.60;7.53;;;0.40;99.90;;;;;;5096933;28;20208;-94
2022/03/06 05:07:37;;;;;;;11.60;7.00;;;0.40;99.90;;;;;;5096357;28;20176;-93
2022/03/06 05:10:08;;;;;;;11.23;8.10;;;0.40;99.90;;;;;;5102278;28;20226;-93
2022/03/06 05:12:35;;;;;;;7.95;6.35;;;0.40;99.90;;;;;;5099293;28;20168;-93
2022/03/06 05:15:01;;;;;;;9.77;6.70;;;0.40;99.90;;;;;;5097004;28;20291;-94
2022/03/06 05:17:27;;;;;;;10.50;7.18;;;0.40;99.90;;;;;;5095383;28;20239;-94
2022/03/06 05:19:53;;;;;;;9.85;6.78;;;0.40;99.90;;;;;;5096756;28;20243;-93
2022/03/06 05:22:19;;;;;;;10.90;7.60;;;0.40;99.90;;;;;;5106718;28;20261;-93
2022/03/06 05:24:47;;;;;;;9.07;6.68;;;0.40;99.90;;;;;;5096899;28;20216;-93
2022/03/06 05:27:13;;;;;;;10.98;7.03;;;0.40;99.90;;;;;;5097399;28;20177;-93
2022/03/06 05:29:39;;;;;;;11.77;7.60;;;0.40;99.90;;;;;;5095519;28;20204;-94
2022/03/06 05:32:06;;;;;;;10.88;7.78;;;0.40;99.90;;;;;;5098019;28;20204;-93
2022/03/06 05:34:32;;;;;;;12.10;8.23;;;0.50;99.90;;;;;;5101503;28;20200;-93
2022/03/06 05:36:58;;;;;;;10.30;7.10;;;0.40;99.90;;;;;;5095655;28;20177;-93
2022/03/06 05:39:24;;;;;;;14.65;7.80;;;0.50;99.90;;;;;;5095381;28;20303;-92
2022/03/06 05:41:51;;;;;;;10.47;7.50;;;0.50;99.90;;;;;;5103900;28;20211;-93
2022/03/06 05:44:18;;;;;;;11.85;6.53;;;0.50;99.90;;;;;;5099064;28;20184;-93
2022/03/06 05:46:44;;;;;;;10.07;7.07;;;0.60;99.90;;;;;;5098641;28;20228;-93
2022/03/06 05:49:13;;;;;;;10.40;6.97;;;0.60;99.90;;;;;;5094824;28;20277;-93
2022/03/06 05:51:40;;;;;;;9.70;7.05;;;0.70;99.90;;;;;;5094660;28;20265;-93
2022/03/06 05:54:07;;;;;;;9.77;7.03;;;0.70;99.90;;;;;;5097321;28;20403;-94
2022/03/06 05:56:34;;;;;;;11.27;6.78;;;0.70;99.90;;;;;;5104182;28;20693;-93
2022/03/06 05:59:00;;;;;;;12.38;6.97;;;0.70;99.90;;;;;;5094276;28;20191;-94
2022/03/06 06:01:29;;;;;;;9.35;6.30;;;0.80;99.90;;;;;;5094256;28;20198;-93
2022/03/06 06:03:59;;;;;;;10.88;7.55;;;0.80;99.90;;;;;;5094794;28;20758;-93
2022/03/06 06:06:26;;;;;;;12.32;6.90;;;0.80;99.90;;;;;;5095241;28;20200;-94
2022/03/06 06:08:53;;;;;;;12.13;6.15;;;0.90;99.90;;;;;;5107454;28;20156;-93
2022/03/06 06:11:20;;;;;;;9.27;6.90;;;0.80;99.90;;;;;;5100174;28;20216;-94
2022/03/06 06:13:46;;;;;;;9.73;7.00;;;0.90;99.90;;;;;;5094560;28;20177;-92
2022/03/06 06:16:13;;;;;;;15.18;7.88;;;0.90;99.90;;;;;;5094125;28;20334;-91
2022/03/06 06:18:40;;;;;;;9.30;6.90;;;1.00;99.90;;;;;;5095115;28;20231;-92
2022/03/06 06:21:06;;;;;;;10.57;6.90;;;1.00;99.90;;;;;;5102157;28;20290;-92
2022/03/06 06:23:33;;;;;;;14.68;8.00;;;1.00;99.90;;;;;;5095947;28;20181;-92
2022/03/06 06:25:59;;;;;;;13.63;7.40;;;1.00;99.90;;;;;;5094478;28;20204;-91
2022/03/06 06:28:25;;;;;;;14.73;8.77;;;1.10;99.90;;;;;;5094279;28;20169;-92
2022/03/06 06:30:51;;;;;;;11.30;7.57;;;1.10;99.90;;;;;;5094534;28;20500;-92
2022/03/06 06:33:17;;;;;;;13.60;7.80;;;1.10;99.90;;;;;;5129232;28;20176;-92
2022/03/06 06:35:44;;;;;;;12.70;7.45;;;1.10;99.90;;;;;;5097757;28;20204;-92
2022/03/06 06:38:10;;;;;;;12.95;8.93;;;1.20;99.90;;;;;;5094382;28;20642;-92
2022/03/06 06:40:37;;;;;;;12.57;7.80;;;1.20;99.90;;;;;;5094351;28;20287;-92
2022/03/06 06:43:03;;;;;;;14.52;9.77;;;1.30;99.90;;;;;;5094346;28;20185;-92
2022/03/06 06:45:30;;;;;;;12.35;8.60;;;1.40;99.90;;;;;;5100500;28;20322;-91
2022/03/06 06:47:57;;;;;;;13.20;8.82;;;1.50;99.90;;;;;;5095966;28;20237;-92
2022/03/06 06:50:23;;;;;;;13.10;8.05;;;1.60;99.90;;;;;;5096381;28;20223;-91
2022/03/06 06:52:50;;;;;;;10.95;8.38;;;1.60;99.90;;;;;;5094227;28;20172;-92
2022/03/06 06:55:16;;;;;;;10.00;7.43;;;1.70;99.90;;;;;;5094400;28;20209;-92
2022/03/06 06:57:42;;;;;;;14.38;7.28;;;1.80;99.90;;;;;;5105809;28;20199;-91
2022/03/06 07:00:09;;;;;;;11.63;8.02;;;1.90;99.90;;;;;;5093820;28;20213;-91
2022/03/06 07:02:35;;;;;;;13.80;8.20;;;2.00;99.90;;;;;;5096437;28;20181;-91
2022/03/06 07:05:01;;;;;;;12.02;7.88;;;2.10;99.90;;;;;;5093585;28;20196;-90
2022/03/06 07:07:27;;;;;;;12.40;8.10;;;2.20;99.90;;;;;;5092875;28;20199;-91
2022/03/06 07:09:54;;;;;;;15.65;10.00;;;2.20;99.90;;;;;;5103808;28;20295;-91
2022/03/06 07:12:20;;;;;;;15.02;8.77;;;2.30;99.90;;;;;;5092167;28;20180;-92
2022/03/06 07:14:46;;;;;;;13.33;8.60;;;2.30;99.90;;;;;;5094294;28;20207;-92
2022/03/06 07:17:13;;;;;;;16.42;9.23;;;2.40;99.90;;;;;;5091587;28;20408;-92
2022/03/06 07:19:39;;;;;;;14.43;8.93;;;2.50;99.90;;;;;;5091656;28;20200;-92
2022/03/06 07:22:06;;;;;;;17.95;9.38;;;2.60;99.90;;;;;;5100864;28;20168;-92
2022/03/06 07:24:32;;;;;;;12.27;8.13;;;2.70;99.90;;;;;;5079756;28;20204;-91
2022/03/06 07:26:58;;;;;;;16.02;8.82;;;2.80;99.90;;;;;;5091471;28;20181;-91
2022/03/06 07:29:24;;;;;;;16.85;9.40;;;2.90;99.90;;;;;;5099589;28;20318;-92
2022/03/06 07:31:51;;;;;;;15.03;9.07;;;3.00;99.90;;;;;;5093310;28;20431;-90
2022/03/06 07:34:17;;;;;;;18.48;10.45;;;3.10;99.90;;;;;;5099708;28;20376;-92
2022/03/06 07:36:43;;;;;;;15.07;9.50;;;3.30;99.90;;;;;;5086998;28;20184;-91
2022/03/06 07:39:09;;;;;;;14.73;9.20;;;3.40;99.90;;;;;;5092737;28;20253;-91
2022/03/06 07:41:36;;;;;;;17.00;10.90;;;3.50;99.90;;;;;;5109885;28;20380;-92
2022/03/06 07:44:02;;;;;;;16.60;10.73;;;3.60;99.90;;;;;;5112914;28;20736;-91
2022/03/06 07:46:28;;;;;;;16.83;11.20;;;3.70;99.80;;;;;;5092589;28;20327;-91
2022/03/06 07:48:54;;;;;;;15.10;10.07;;;3.90;99.60;;;;;;5108429;28;20183;-91
2022/03/06 07:51:20;;;;;;;16.83;10.38;;;4.00;99.80;;;;;;5096908;28;20311;-91
2022/03/06 07:53:46;;;;;;;18.45;11.43;;;4.20;99.50;;;;;;5097544;28;20197;-92
2022/03/06 07:56:14;;;;;;;14.53;10.17;;;4.30;99.30;;;;;;5097426;28;20283;-92
2022/03/06 07:58:41;;;;;;;14.30;10.30;;;4.50;99.10;;;;;;5100832;28;20777;-91
2022/03/06 08:01:07;;;;;;;15.77;10.70;;;4.70;98.60;;;;;;5106740;28;20200;-91
2022/03/06 08:03:33;;;;;;;17.75;10.40;;;4.80;98.20;;;;;;5103102;28;20176;-93
2022/03/06 08:05:59;;;;;;;14.63;10.90;;;4.90;97.90;;;;;;5105934;28;20200;-91
2022/03/06 08:08:25;;;;;;;17.33;11.35;;;4.90;97.80;;;;;;5097808;28;20168;-92
2022/03/06 08:10:51;;;;;;;16.43;11.63;;;4.90;97.70;;;;;;5099276;28;20302;-91
2022/03/06 08:13:18;;;;;;;16.52;11.60;;;5.00;97.70;;;;;;5111230;28;20574;-91
2022/03/06 08:15:43;;;;;;;19.10;12.55;;;4.90;97.90;;;;;;5097119;28;20201;-91
2022/03/06 08:18:10;;;;;;;20.77;12.60;;;5.00;97.80;;;;;;5097106;28;20304;-92
2022/03/06 08:20:36;;;;;;;17.25;11.70;;;5.10;97.90;;;;;;5096675;28;20463;-91
2022/03/06 08:23:03;;;;;;;19.55;12.23;;;5.20;97.90;;;;;;5106889;28;20223;-92
2022/03/06 08:25:29;;;;;;;16.38;11.30;;;5.40;97.60;;;;;;5101231;28;20216;-91
2022/03/06 08:27:57;;;;;;;17.30;11.93;;;5.70;97.60;;;;;;5097023;28;20290;-91
2022/03/06 08:30:23;;;;;;;19.08;11.98;;;6.10;97.00;;;;;;5096398;28;20978;-92
2022/03/06 08:32:49;;;;;;;18.25;12.13;;;6.60;96.60;;;;;;5096670;28;20646;-92
2022/03/06 08:35:17;;;;;;;17.98;11.95;;;7.20;95.80;;;;;;5086053;28;20208;-92
2022/03/06 08:37:43;;;;;;;17.75;11.50;;;7.80;94.50;;;;;;5101386;28;20183;-92
2022/03/06 08:40:09;;;;;;;19.10;12.77;;;8.00;93.70;;;;;;5099646;28;20653;-92
2022/03/06 08:42:35;;;;;;;17.77;12.40;;;8.00;93.20;;;;;;5096824;28;20395;-92
2022/03/06 08:45:01;;;;;;;16.02;12.77;;;7.90;93.20;;;;;;5083232;28;20263;-91
2022/03/06 08:47:27;;;;;;;19.35;12.57;;;7.70;93.50;;;;;;5024968;28;20624;-94
2022/03/06 08:49:55;;;;;;;16.13;11.85;;;7.50;93.50;;;;;;5085820;28;20297;-94
2022/03/06 08:52:20;;;;;;;21.17;13.38;;;7.30;93.80;;;;;;5083938;28;20643;-93
2022/03/06 08:54:49;;;;;;;19.63;13.82;;;7.20;93.90;;;;;;5012743;28;20199;-94
2022/03/06 08:57:15;;;;;;;18.67;12.52;;;7.10;94.10;;;;;;5013023;28;20171;-94
2022/03/06 08:59:42;;;;;;;19.20;12.68;;;7.00;94.10;;;;;;5023777;28;20219;-94
2022/03/06 09:02:08;;;;;;;18.08;11.95;;;7.00;94.20;;;;;;5015776;28;20237;-94
2022/03/06 09:04:34;;;;;;;18.55;13.73;;;7.00;94.50;;;;;;5013013;28;20207;-94
2022/03/06 09:07:00;;;;;;;20.17;14.30;;;7.10;94.60;;;;;;5012915;28;20678;-93
2022/03/06 09:09:27;;;;;;;22.53;14.93;;;7.30;94.60;;;;;;5013842;28;20207;-94
2022/03/06 09:11:53;;;;;;;18.23;13.23;;;7.90;94.30;;;;;;5079377;28;20529;-94
2022/03/06 09:14:19;;;;;;;20.80;12.80;;;8.50;93.70;;;;;;5029529;28;20179;-95
2022/03/06 09:16:45;;;;;;;18.95;13.45;;;9.00;92.60;;;;;;5083106;28;20175;-93
2022/03/06 09:19:12;;;;;;;18.38;13.52;;;9.20;92.10;;;;;;5016412;28;20183;-93
2022/03/06 09:21:39;;;;;;;21.33;14.27;;;9.40;91.80;;;;;;5081799;28;20658;-92
2022/03/06 09:24:08;;;;;;;20.45;14.00;;;9.60;91.60;;;;;;5019858;28;20186;-94
2022/03/06 09:26:34;;;;;;;20.65;14.82;;;10.00;91.60;;;;;;5081637;28;20175;-94
2022/03/06 09:29:01;;;;;;;22.27;14.75;;;10.70;91.00;;;;;;5012268;28;20735;-94
2022/03/06 09:31:27;;;;;;;20.17;14.27;;;11.40;89.80;;;;;;5010794;28;20710;-94
2022/03/06 09:33:53;;;;;;;19.27;14.55;;;12.10;89.90;;;;;;5069295;28;20202;-93
2022/03/06 09:36:23;;;;;;;19.60;13.73;;;12.60;87.70;;;;;;5018332;28;20219;-94
2022/03/06 09:38:49;;;;;;;24.45;14.90;;;13.30;85.00;;;;;;5013344;28;20201;-93
2022/03/06 09:41:23;;;;;;;19.02;13.95;;;13.80;82.90;;;;;;5012725;28;20252;-96
2022/03/06 09:43:50;;;;;;;17.08;13.00;;;14.10;81.10;;;;;;5010797;28;20209;-95
2022/03/06 09:46:20;;;;;;;17.75;14.05;;;14.20;80.00;;;;;;5015107;28;20262;-95
2022/03/06 09:48:47;;;;;;;19.27;14.73;;;14.20;79.10;;;;;;5011428;28;20545;-95
2022/03/06 09:51:14;;;;;;;20.27;14.18;;;13.90;79.10;;;;;;5021152;28;20226;-95
2022/03/06 09:53:40;;;;;;;19.48;14.45;;;13.60;79.10;;;;;;5013905;28;20176;-93
2022/03/06 09:56:06;;;;;;;20.45;15.18;;;13.40;79.00;;;;;;5012166;28;20206;-94
2022/03/06 09:58:32;;;;;;;20.92;15.18;;;13.10;79.10;;;;;;5012142;28;20179;-94
2022/03/06 10:00:59;;;;;;;21.48;15.43;;;12.70;80.10;;;;;;5018253;28;20207;-94
2022/03/06 10:03:26;;;;;;;22.02;14.20;;;12.40;80.10;;;;;;5085711;28;20175;-95
2022/03/06 10:05:52;;;;;;;19.55;14.90;;;12.20;81.00;;;;;;5014755;28;20241;-95
2022/03/06 10:08:22;;;;;;;20.13;14.70;;;12.00;81.00;;;;;;5011842;28;20175;-94
2022/03/06 10:10:55;;;;;;;20.20;15.05;;;12.00;81.40;;;;;;5080522;28;20577;-95
2022/03/06 10:13:34;;;;;;;23.27;14.98;;;12.00;82.30;;;;;;5021597;28;20205;-94
2022/03/06 10:16:20;;;;;;;16.85;12.77;;;12.00;81.70;;;;;;5084265;28;20203;-95
2022/03/06 10:18:46;;;;;;;21.92;14.00;;;12.00;82.00;;;;;;5011385;28;20175;-95
2022/03/06 10:21:12;;;;;;;21.80;16.75;;;12.00;80.90;;;;;;5086534;28;20192;-95
2022/03/06 10:23:39;;;;;;;21.80;15.27;;;11.90;81.60;;;;;;5081011;28;20186;-95
2022/03/06 10:26:17;;;;;;;25.75;17.58;;;11.80;81.30;;;;;;5017159;28;20547;-95
2022/03/06 10:28:46;;;;;;;23.52;15.15;;;11.60;81.60;;;;;;5016449;28;20271;-95
2022/03/06 10:31:13;;;;;;;21.60;15.60;;;11.50;82.30;;;;;;5080352;28;20219;-95
2022/03/06 10:33:39;;;;;;;18.23;13.40;;;11.40;82.00;;;;;;5011596;28;20191;-96
2022/03/06 10:36:08;;;;;;;20.80;12.50;;;11.30;81.00;;;;;;5026346;28;20199;-94
2022/03/06 10:38:35;;;;;;;21.48;13.85;;;11.10;81.50;;;;;;5014241;28;20175;-95
2022/03/06 10:41:03;;;;;;;21.08;15.77;;;11.00;82.00;;;;;;5081233;28;20215;-96
2022/03/06 10:43:34;;;;;;;23.17;15.95;;;10.80;81.80;;;;;;5081275;28;20187;-94
2022/03/06 10:46:18;;;;;;;20.92;15.20;;;10.70;82.70;;;;;;5011777;28;20242;-95
2022/03/06 10:48:56;;;;;;;23.05;15.43;;;10.70;82.90;;;;;;5019954;28;20204;-94
2022/03/06 10:51:23;;;;;;;22.02;14.48;;;10.60;83.10;;;;;;5079984;28;20227;-95
2022/03/06 10:53:54;;;;;;;21.20;13.38;;;10.60;83.00;;;;;;5079891;28;20655;-94
2022/03/06 10:56:20;;;;;;;19.70;13.85;;;10.70;83.10;;;;;;5017422;28;20675;-94
2022/03/06 10:58:47;;;;;;;17.75;11.23;;;10.70;83.10;;;;;;5011732;28;20179;-93
2022/03/06 11:01:14;;;;;;;21.95;13.00;;;10.70;83.10;;;;;;5021138;28;20294;-95
2022/03/06 11:03:41;;;;;;;19.45;13.57;;;10.80;83.10;;;;;;5010502;28;20192;-95
2022/03/06 11:06:09;;;;;;;20.17;14.07;;;10.80;83.00;;;;;;5010970;28;20657;-95
2022/03/06 11:08:36;;;;;;;21.67;15.15;;;10.80;83.90;;;;;;5012142;28;20179;-95
2022/03/06 11:11:08;;;;;;;22.95;14.93;;;10.90;82.70;;;;;;5012998;28;20258;-95
2022/03/06 11:13:34;;;;;;;21.88;14.50;;;10.90;82.80;;;;;;5018283;28;20222;-94
2022/03/06 11:16:05;;;;;;;20.65;13.32;;;10.90;81.90;;;;;;5012816;28;20207;-95
2022/03/06 11:18:32;;;;;;;21.38;13.90;;;11.00;81.90;;;;;;5010787;28;20168;-95
2022/03/06 11:21:01;;;;;;;23.00;14.43;;;11.00;82.20;;;;;;5013687;28;20664;-95
2022/03/06 11:23:44;;;;;;;20.27;14.18;;;11.00;80.90;;;;;;5012248;28;20171;-95
2022/03/06 11:26:13;;;;;;;21.45;14.30;;;11.00;81.20;;;;;;5017661;28;20226;-95
2022/03/06 11:28:58;;;;;;;22.35;15.60;;;11.00;81.20;;;;;;5080917;28;20183;-94
2022/03/06 11:31:24;;;;;;;17.85;13.93;;;11.10;81.30;;;;;;5079303;28;20219;-95
2022/03/06 11:33:57;;;;;;;22.90;15.65;;;11.10;80.70;;;;;;5079661;28;20179;-95
2022/03/06 11:36:25;;;;;;;19.45;12.32;;;11.10;80.60;;;;;;5019624;28;20203;-95
2022/03/06 11:38:52;;;;;;;21.05;14.82;;;11.20;80.90;;;;;;5023748;28;20179;-95
2022/03/06 11:41:19;;;;;;;23.58;15.95;;;11.20;80.50;;;;;;5014495;28;20236;-95
2022/03/06 11:43:50;;;;;;;24.90;16.58;;;11.20;80.50;;;;;;5010769;28;20183;-94
2022/03/06 11:46:26;;;;;;;28.10;18.33;;;11.30;80.20;;;;;;5010041;28;20266;-96
2022/03/06 11:49:04;;;;;;;29.95;19.52;;;11.30;80.30;;;;;;5079857;28;20174;-95
2022/03/06 11:51:30;;;;;;;24.65;17.80;;;11.30;80.30;;;;;;5018466;28;20222;-95
2022/03/06 11:54:02;;;;;;;21.27;17.13;;;11.30;80.60;;;;;;5010137;28;20589;-94
2022/03/06 11:56:31;;;;;;;19.15;13.80;;;11.30;80.80;;;;;;5079892;28;20229;-95
2022/03/06 11:59:09;;;;;;;19.17;14.00;;;11.30;80.60;;;;;;5079252;28;20731;-94
2022/03/06 12:01:37;;;;;;;21.05;14.80;;;11.30;80.50;;;;;;5020255;28;20183;-95
2022/03/06 12:04:13;;;;;;;24.98;16.00;;;11.30;80.30;;;;;;5010285;28;20212;-95
2022/03/06 12:06:40;;;;;;;21.70;14.38;;;11.30;80.30;;;;;;5010051;28;20178;-93
2022/03/06 12:09:17;;;;;;;23.38;15.70;;;11.30;79.20;;;;;;5080998;28;20171;-95
2022/03/06 12:11:44;;;;;;;22.52;15.35;;;11.30;79.00;;;;;;5010054;28;20230;-95
2022/03/06 12:14:18;;;;;;;22.77;17.15;;;11.30;80.00;;;;;;5016563;28;20176;-95
2022/03/06 12:17:17;;;;;;;21.40;15.07;;;11.40;80.70;;;;;;5013169;28;20168;-95
2022/03/06 12:19:43;;;;;;;19.80;14.25;;;11.40;79.10;;;;;;5057171;28;20688;-95
2022/03/06 12:22:22;;;;;;;21.10;15.03;;;11.40;78.90;;;;;;5079173;28;20187;-95
2022/03/06 12:24:50;;;;;;;18.30;14.32;;;11.40;79.10;;;;;;5086890;28;20437;-95
2022/03/06 12:27:23;;;;;;;18.40;14.10;;;11.50;79.50;;;;;;5034315;28;20159;-93
2022/03/06 12:29:48;;;;;;;23.80;14.00;;;11.50;78.90;;;;;;4996152;28;20322;-94
2022/03/06 12:32:31;;;;;;;19.23;13.40;;;11.60;79.10;;;;;;5084871;28;20648;-95
2022/03/06 12:35:10;;;;;;;19.98;14.70;;;11.60;78.60;;;;;;5082077;28;20210;-96
2022/03/06 12:37:51;;;;;;;18.33;13.90;;;11.60;78.30;;;;;;5013841;28;20213;-95
2022/03/06 12:40:28;;;;;;;19.65;13.73;;;11.60;78.70;;;;;;5020671;28;20211;-95
2022/03/06 12:43:08;;;;;;;20.20;12.90;;;11.50;78.20;;;;;;5085772;28;20614;-93
2022/03/06 12:45:36;;;;;;;18.83;12.55;;;11.50;78.00;;;;;;5086997;28;20270;-96